createdAt,value
2019-05-18T00:02:00.524Z,11.88
2019-05-18T00:04:34.683Z,11.83
2019-05-18T00:07:03.395Z,11.78
2019-05-18T00:09:32.155Z,11.69
2019-05-18T00:12:01.879Z,11.61
2019-05-18T00:14:39.719Z,11.41
2019-05-18T00:17:24.561Z,11.31
2019-05-18T00:20:02.195Z,11.31
2019-05-18T00:22:30.873Z,11.33
2019-05-18T00:24:59.617Z,11.38
2019-05-18T00:27:28.391Z,11.14
2019-05-18T00:29:57.077Z,11.13
2019-05-18T00:32:28.472Z,11.09
2019-05-18T00:35:04.945Z,11.07
2019-05-18T00:37:37.787Z,11.14
2019-05-18T00:40:09.999Z,11.20
2019-05-18T00:42:43.082Z,11.32
2019-05-18T00:45:17.115Z,11.43
2019-05-18T00:47:49.934Z,11.43
2019-05-18T00:50:18.755Z,11.64
2019-05-18T00:52:48.986Z,11.48
2019-05-18T00:55:21.637Z,11.51
2019-05-18T00:57:52.271Z,11.54
2019-05-18T01:00:32.337Z,11.32
2019-05-18T01:03:08.085Z,11.37
2019-05-18T01:05:43.873Z,11.37
2019-05-18T01:08:14.052Z,11.45
2019-05-18T01:10:43.877Z,11.57
2019-05-18T01:13:12.992Z,11.61
2019-05-18T01:15:41.706Z,11.55
2019-05-18T01:18:13.270Z,11.43
2019-05-18T01:20:42.097Z,11.46
2019-05-18T01:23:17.677Z,11.73
2019-05-18T01:25:47.913Z,11.61
2019-05-18T01:28:23.908Z,11.59
2019-05-18T01:30:50.269Z,11.40
2019-05-18T01:33:20.418Z,11.55
2019-05-18T01:35:53.825Z,11.47
2019-05-18T01:38:29.407Z,11.22
2019-05-18T01:41:02.599Z,11.06
2019-05-18T01:43:35.981Z,10.89
2019-05-18T01:46:08.949Z,11.13
2019-05-18T01:48:40.689Z,10.99
2019-05-18T01:51:12.033Z,10.84
2019-05-18T01:53:43.065Z,10.96
2019-05-18T01:56:20.581Z,11.40
2019-05-18T01:58:49.414Z,11.03
2019-05-18T02:01:18.071Z,10.97
2019-05-18T02:03:49.833Z,10.99
2019-05-18T02:06:18.603Z,10.96
2019-05-18T02:08:47.338Z,10.84
2019-05-18T02:11:16.063Z,10.91
2019-05-18T02:13:47.816Z,10.81
2019-05-18T02:16:16.534Z,10.83
2019-05-18T02:18:45.121Z,10.66
2019-05-18T02:21:16.892Z,10.74
2019-05-18T02:23:45.658Z,10.95
2019-05-18T02:26:17.505Z,10.97
2019-05-18T02:28:52.850Z,11.10
2019-05-18T02:31:25.776Z,10.82
2019-05-18T02:33:52.089Z,10.76
2019-05-18T02:36:25.073Z,10.73
2019-05-18T02:38:57.686Z,10.70
2019-05-18T02:41:29.097Z,10.67
2019-05-18T02:44:08.033Z,10.70
2019-05-18T02:46:28.234Z,10.70
2019-05-18T02:48:57.013Z,10.98
2019-05-18T02:51:28.586Z,11.19
2019-05-18T02:53:57.304Z,11.11
2019-05-18T02:56:26.060Z,10.91
2019-05-18T02:58:54.799Z,10.39
2019-05-18T03:01:23.467Z,10.09
2019-05-18T03:03:53.582Z,10.00
2019-05-18T03:06:26.611Z,9.96
2019-05-18T03:08:55.456Z,10.02
2019-05-18T03:11:24.230Z,9.99
2019-05-18T03:13:52.902Z,10.08
2019-05-18T03:16:29.049Z,10.12
2019-05-18T03:19:08.215Z,10.33
2019-05-18T03:21:29.754Z,10.40
2019-05-18T03:24:14.976Z,10.55
2019-05-18T03:26:47.920Z,10.45
2019-05-18T03:29:35.178Z,10.89
2019-05-18T03:32:03.828Z,10.99
2019-05-18T03:34:34.025Z,11.25
2019-05-18T03:37:04.377Z,10.98
2019-05-18T03:39:33.142Z,11.17
2019-05-18T03:42:03.272Z,11.02
2019-05-18T03:44:32.064Z,11.03
2019-05-18T03:47:09.527Z,11.16
2019-05-18T03:49:48.783Z,11.17
2019-05-18T03:52:23.388Z,11.15
2019-05-18T03:54:52.794Z,11.14
2019-05-18T03:57:21.550Z,11.25
2019-05-18T03:59:50.273Z,10.90
2019-05-18T04:02:20.660Z,11.27
2019-05-18T04:04:51.875Z,11.26
2019-05-18T04:07:20.604Z,11.50
2019-05-18T04:09:55.857Z,11.16
2019-05-18T04:12:31.554Z,11.28
2019-05-18T04:15:01.986Z,11.60
2019-05-18T04:17:30.668Z,12.23
2019-05-18T04:20:00.777Z,11.90
2019-05-18T04:22:29.552Z,11.97
2019-05-18T04:25:04.347Z,12.64
2019-05-18T04:27:33.110Z,12.39
2019-05-18T04:30:06.184Z,12.29
2019-05-18T04:32:37.926Z,12.56
2019-05-18T04:35:09.672Z,12.97
2019-05-18T04:37:38.434Z,14.22
2019-05-18T04:40:09.192Z,14.14
2019-05-18T04:42:37.828Z,13.72
2019-05-18T04:45:13.371Z,13.39
2019-05-18T04:47:48.490Z,13.06
2019-05-18T04:50:16.042Z,13.26
2019-05-18T04:52:46.225Z,13.41
2019-05-18T04:55:14.894Z,13.76
2019-05-18T04:57:43.544Z,13.71
2019-05-18T05:00:12.747Z,13.34
2019-05-18T05:02:44.136Z,13.48
2019-05-18T05:05:17.061Z,13.64
2019-05-18T05:07:47.012Z,14.86
2019-05-18T05:10:15.943Z,15.83
2019-05-18T05:12:47.743Z,16.00
2019-05-18T05:15:16.446Z,16.57
2019-05-18T05:17:45.171Z,16.62
2019-05-18T05:20:19.595Z,16.12
2019-05-18T05:22:44.605Z,16.32
2019-05-18T05:25:13.307Z,16.59
2019-05-18T05:27:42.112Z,15.88
2019-05-18T05:30:15.961Z,15.92
2019-05-18T05:32:46.917Z,15.77
2019-05-18T05:35:15.789Z,16.12
2019-05-18T05:37:44.464Z,16.13
2019-05-18T05:40:13.399Z,16.22
2019-05-18T05:42:42.212Z,16.66
2019-05-18T05:45:11.359Z,16.75
2019-05-18T05:47:39.952Z,16.78
2019-05-18T05:50:15.920Z,16.99
2019-05-18T05:52:51.574Z,17.26
2019-05-18T05:55:22.225Z,17.12
2019-05-18T05:57:53.142Z,17.56
2019-05-18T06:00:22.290Z,17.55
2019-05-18T06:02:53.136Z,17.56
2019-05-18T06:05:27.479Z,16.86
2019-05-18T06:07:56.193Z,17.35
2019-05-18T06:10:24.861Z,16.49
2019-05-18T06:12:53.604Z,17.05
2019-05-18T06:15:22.284Z,17.05
2019-05-18T06:17:54.032Z,17.87
2019-05-18T06:20:24.272Z,17.65
2019-05-18T06:23:00.565Z,17.54
2019-05-18T06:25:34.084Z,18.05
2019-05-18T06:28:03.790Z,17.69
2019-05-18T06:30:32.516Z,18.38
2019-05-18T06:33:02.615Z,18.22
2019-05-18T06:35:35.378Z,18.02
2019-05-18T06:38:08.272Z,18.56
2019-05-18T06:40:36.907Z,18.43
2019-05-18T06:43:05.733Z,18.89
2019-05-18T06:45:34.497Z,19.25
2019-05-18T06:48:07.475Z,19.71
2019-05-18T06:50:37.732Z,18.89
2019-05-18T06:53:09.034Z,18.85
2019-05-18T06:56:02.039Z,19.01
2019-05-18T06:58:31.301Z,19.41
2019-05-18T07:01:12.209Z,19.78
2019-05-18T07:03:40.918Z,20.27
2019-05-18T07:06:16.523Z,20.07
2019-05-18T07:08:45.253Z,18.67
2019-05-18T07:11:16.511Z,19.17
2019-05-18T07:13:51.301Z,19.63
2019-05-18T07:16:32.385Z,20.17
2019-05-18T07:19:01.112Z,20.97
2019-05-18T07:21:29.852Z,20.60
2019-05-18T07:23:59.752Z,20.23
2019-05-18T07:26:28.708Z,20.26
2019-05-18T07:28:57.585Z,20.16
2019-05-18T07:31:26.235Z,20.25
2019-05-18T07:33:56.583Z,20.64
2019-05-18T07:36:28.000Z,20.58
2019-05-18T07:38:56.644Z,20.70
2019-05-18T07:41:28.418Z,20.68
2019-05-18T07:43:57.100Z,20.62
2019-05-18T07:46:28.696Z,20.33
2019-05-18T07:48:57.506Z,21.14
2019-05-18T07:51:36.686Z,20.52
2019-05-18T07:53:56.609Z,20.69
2019-05-18T07:56:28.083Z,20.84
2019-05-18T07:59:02.010Z,21.47
2019-05-18T08:01:30.705Z,21.21
2019-05-18T08:04:02.827Z,21.52
2019-05-18T08:06:31.492Z,21.58
2019-05-18T08:09:00.135Z,22.11
2019-05-18T08:11:28.849Z,21.45
2019-05-18T08:14:04.080Z,21.62
2019-05-18T08:16:32.920Z,21.84
2019-05-18T08:19:01.637Z,21.93
2019-05-18T08:21:30.448Z,22.40
2019-05-18T08:24:02.241Z,22.57
2019-05-18T08:26:31.089Z,22.55
2019-05-18T08:28:59.839Z,22.13
2019-05-18T08:31:37.055Z,22.28
2019-05-18T08:34:05.879Z,22.19
2019-05-18T08:36:36.156Z,22.34
2019-05-18T08:39:06.309Z,22.53
2019-05-18T08:41:37.654Z,21.98
2019-05-18T08:44:09.278Z,21.63
2019-05-18T08:46:40.637Z,21.84
2019-05-18T08:49:09.370Z,22.50
2019-05-18T08:51:39.848Z,22.43
2019-05-18T08:54:15.179Z,22.11
2019-05-18T08:56:43.686Z,22.51
2019-05-18T08:59:16.435Z,23.14
2019-05-18T09:01:45.115Z,22.86
2019-05-18T09:04:15.273Z,22.59
2019-05-18T09:06:45.122Z,22.45
2019-05-18T09:09:13.811Z,22.25
2019-05-18T09:11:45.404Z,22.47
2019-05-18T09:14:14.088Z,23.04
2019-05-18T09:16:42.738Z,23.36
2019-05-18T09:19:11.446Z,22.67
2019-05-18T09:21:40.237Z,22.95
2019-05-18T09:24:09.069Z,23.52
2019-05-18T09:26:37.881Z,23.50
2019-05-18T09:29:06.596Z,23.99
2019-05-18T09:31:35.365Z,23.63
2019-05-18T09:34:04.219Z,23.25
2019-05-18T09:36:32.934Z,23.53
2019-05-18T09:39:01.685Z,23.80
2019-05-18T09:41:30.423Z,24.35
2019-05-18T09:43:58.995Z,24.21
2019-05-18T09:46:27.867Z,24.03
2019-05-18T09:48:56.717Z,24.35
2019-05-18T09:51:25.571Z,23.60
2019-05-18T09:53:54.195Z,23.97
2019-05-18T09:56:22.906Z,24.66
2019-05-18T09:58:51.678Z,24.71
2019-05-18T10:01:20.499Z,24.92
2019-05-18T10:03:49.457Z,24.58
2019-05-18T10:06:18.132Z,24.99
2019-05-18T10:08:46.781Z,25.05
2019-05-18T10:11:15.701Z,24.43
2019-05-18T10:13:45.926Z,24.63
2019-05-18T10:16:14.766Z,24.19
2019-05-18T10:18:43.507Z,25.00
2019-05-18T10:21:12.291Z,25.02
2019-05-18T10:23:40.999Z,25.24
2019-05-18T10:26:09.780Z,25.42
2019-05-18T10:28:38.647Z,24.87
2019-05-18T10:31:07.377Z,25.53
2019-05-18T10:33:36.240Z,25.80
2019-05-18T10:36:05.184Z,25.89
2019-05-18T10:38:33.777Z,24.85
2019-05-18T10:41:02.817Z,25.21
2019-05-18T10:43:34.318Z,25.45
2019-05-18T10:46:03.155Z,25.89
2019-05-18T10:48:31.928Z,26.10
2019-05-18T10:51:00.660Z,26.26
2019-05-18T10:53:29.397Z,25.60
2019-05-18T10:55:58.194Z,24.72
2019-05-18T10:58:27.004Z,25.58
2019-05-18T11:00:55.748Z,26.10
2019-05-18T11:03:24.601Z,26.25
2019-05-18T11:05:53.345Z,25.76
2019-05-18T11:08:22.154Z,25.76
2019-05-18T11:10:50.917Z,25.45
2019-05-18T11:13:19.744Z,25.08
2019-05-18T11:15:48.522Z,25.96
2019-05-18T11:18:17.229Z,26.03
2019-05-18T11:20:45.976Z,26.42
2019-05-18T11:23:14.644Z,26.69
2019-05-18T11:25:43.398Z,26.45
2019-05-18T11:28:12.169Z,26.05
2019-05-18T11:30:40.919Z,25.64
2019-05-18T11:33:09.693Z,26.35
2019-05-18T11:35:38.514Z,26.03
2019-05-18T11:38:07.234Z,26.02
2019-05-18T11:40:35.916Z,26.53
2019-05-18T11:43:04.622Z,25.97
2019-05-18T11:45:33.917Z,24.99
2019-05-18T11:48:02.596Z,25.27
2019-05-18T11:50:31.364Z,25.47
2019-05-18T11:53:00.122Z,25.28
2019-05-18T11:55:28.782Z,25.27
2019-05-18T11:57:57.487Z,25.29
2019-05-18T12:00:26.695Z,25.61
2019-05-18T12:02:55.444Z,25.39
2019-05-18T12:05:24.162Z,25.20
2019-05-18T12:07:52.742Z,26.01
2019-05-18T12:10:21.677Z,26.57
2019-05-18T12:12:50.422Z,26.73
2019-05-18T12:15:19.396Z,26.38
2019-05-18T12:17:48.198Z,25.44
2019-05-18T12:20:17.480Z,25.71
2019-05-18T12:22:46.136Z,25.40
2019-05-18T12:25:14.902Z,25.80
2019-05-18T12:27:45.111Z,25.75
2019-05-18T12:30:14.739Z,26.14
2019-05-18T12:32:43.526Z,26.43
2019-05-18T12:35:12.835Z,26.62
2019-05-18T12:37:41.478Z,26.33
2019-05-18T12:40:10.848Z,26.65
2019-05-18T12:42:39.572Z,25.65
2019-05-18T12:45:09.529Z,26.05
2019-05-18T12:47:38.185Z,26.31
2019-05-18T12:50:08.222Z,25.71
2019-05-18T12:52:37.087Z,25.41
2019-05-18T12:55:07.480Z,25.31
2019-05-18T12:57:36.673Z,25.67
2019-05-18T13:00:10.662Z,26.27
2019-05-18T13:02:39.393Z,26.49
2019-05-18T13:05:09.204Z,26.10
2019-05-18T13:07:37.845Z,26.61
2019-05-18T13:10:09.413Z,26.10
2019-05-18T13:12:38.288Z,25.54
2019-05-18T13:15:09.187Z,25.19
2019-05-18T13:17:38.011Z,25.21
2019-05-18T13:20:09.774Z,25.70
2019-05-18T13:22:38.430Z,26.09
2019-05-18T13:25:08.062Z,26.24
2019-05-18T13:27:39.878Z,26.51
2019-05-18T13:30:08.860Z,26.15
2019-05-18T13:32:40.240Z,25.82
2019-05-18T13:35:09.541Z,25.61
2019-05-18T13:37:38.196Z,25.80
2019-05-18T13:40:07.930Z,26.01
2019-05-18T13:42:36.618Z,26.10
2019-05-18T13:45:09.516Z,26.43
2019-05-18T13:47:38.236Z,26.54
2019-05-18T13:50:07.749Z,26.66
2019-05-18T13:52:36.455Z,26.43
2019-05-18T13:55:06.607Z,26.73
2019-05-18T13:57:35.669Z,26.70
2019-05-18T14:00:07.023Z,26.31
2019-05-18T14:02:35.664Z,26.23
2019-05-18T14:05:05.425Z,26.31
2019-05-18T14:07:34.158Z,26.49
2019-05-18T14:10:02.864Z,26.31
2019-05-18T14:12:33.073Z,26.51
2019-05-18T14:15:01.726Z,26.56
2019-05-18T14:17:30.442Z,26.63
2019-05-18T14:19:59.245Z,26.72
2019-05-18T14:22:27.894Z,26.86
2019-05-18T14:24:56.552Z,26.10
2019-05-18T14:27:25.242Z,25.75
2019-05-18T14:29:54.003Z,25.51
2019-05-18T14:32:22.660Z,25.63
2019-05-18T14:34:51.276Z,25.63
2019-05-18T14:37:19.999Z,26.10
2019-05-18T14:39:48.707Z,26.13
2019-05-18T14:42:17.413Z,26.28
2019-05-18T14:44:46.070Z,25.71
2019-05-18T14:47:14.847Z,25.76
2019-05-18T14:49:43.628Z,25.87
2019-05-18T14:52:12.478Z,25.80
2019-05-18T14:54:41.124Z,26.02
2019-05-18T14:57:09.821Z,26.18
2019-05-18T14:59:38.482Z,26.47
2019-05-18T15:02:07.142Z,26.07
2019-05-18T15:04:35.862Z,25.90
2019-05-18T15:07:04.522Z,25.92
2019-05-18T15:09:33.162Z,25.81
2019-05-18T15:12:02.081Z,25.76
2019-05-18T15:14:30.898Z,25.74
2019-05-18T15:16:59.556Z,25.70
2019-05-18T15:19:28.202Z,25.90
2019-05-18T15:21:57.240Z,25.49
2019-05-18T15:24:25.885Z,25.47
2019-05-18T15:26:54.707Z,25.33
2019-05-18T15:29:23.393Z,25.28
2019-05-18T15:31:52.110Z,25.54
2019-05-18T15:34:23.804Z,25.86
2019-05-18T15:36:52.549Z,25.60
2019-05-18T15:39:21.281Z,25.46
2019-05-18T15:41:49.940Z,25.30
2019-05-18T15:44:18.759Z,25.02
2019-05-18T15:46:47.475Z,25.01
2019-05-18T15:49:16.206Z,25.19
2019-05-18T15:51:44.990Z,25.43
2019-05-18T15:54:13.638Z,25.31
2019-05-18T15:56:47.880Z,25.29
2019-05-18T15:59:16.659Z,25.10
2019-05-18T16:01:45.377Z,25.06
2019-05-18T16:04:14.086Z,25.10
2019-05-18T16:06:42.862Z,25.06
2019-05-18T16:09:11.536Z,24.89
2019-05-18T16:11:40.264Z,24.99
2019-05-18T16:14:09.033Z,24.82
2019-05-18T16:16:37.684Z,24.72
2019-05-18T16:19:09.334Z,24.57
2019-05-18T16:21:38.078Z,24.62
2019-05-18T16:24:06.795Z,24.47
2019-05-18T16:26:35.565Z,24.56
2019-05-18T16:29:04.251Z,24.50
2019-05-18T16:31:33.002Z,24.55
2019-05-18T16:34:01.848Z,24.50
2019-05-18T16:36:34.547Z,24.51
2019-05-18T16:39:06.215Z,24.41
2019-05-18T16:41:34.999Z,24.28
2019-05-18T16:44:03.748Z,24.35
2019-05-18T16:46:32.435Z,24.19
2019-05-18T16:49:08.757Z,24.17
2019-05-18T16:51:37.454Z,24.14
2019-05-18T16:54:06.165Z,24.13
2019-05-18T16:56:35.547Z,24.15
2019-05-18T16:59:04.248Z,24.06
2019-05-18T17:01:33.018Z,24.04
2019-05-18T17:04:03.223Z,24.01
2019-05-18T17:06:31.867Z,23.96
2019-05-18T17:09:00.517Z,23.83
2019-05-18T17:11:38.165Z,23.73
2019-05-18T17:14:09.751Z,23.62
2019-05-18T17:16:38.477Z,23.55
2019-05-18T17:19:08.675Z,23.51
2019-05-18T17:21:40.408Z,23.47
2019-05-18T17:24:09.139Z,23.37
2019-05-18T17:26:51.769Z,23.34
2019-05-18T17:29:19.296Z,23.33
2019-05-18T17:31:48.118Z,23.15
2019-05-18T17:34:16.743Z,23.16
2019-05-18T17:36:45.554Z,23.04
2019-05-18T17:39:14.294Z,22.93
2019-05-18T17:41:43.006Z,22.87
2019-05-18T17:44:11.685Z,22.79
2019-05-18T17:46:40.452Z,23.02
2019-05-18T17:49:25.593Z,22.87
2019-05-18T17:51:39.549Z,22.83
2019-05-18T17:57:08.114Z,22.53
2019-05-18T17:59:28.334Z,21.78
2019-05-18T18:01:56.980Z,21.47
2019-05-18T18:04:37.653Z,21.30
2019-05-18T18:07:06.375Z,21.08
2019-05-18T18:09:35.099Z,20.94
2019-05-18T18:12:06.885Z,20.72
2019-05-18T18:14:35.635Z,20.67
2019-05-18T18:17:04.424Z,20.51
2019-05-18T18:19:33.122Z,20.55
2019-05-18T18:22:01.839Z,20.54
2019-05-18T18:24:30.569Z,20.47
2019-05-18T18:26:59.295Z,20.47
2019-05-18T18:29:27.940Z,20.54
2019-05-18T18:31:56.601Z,20.59
2019-05-18T18:34:25.471Z,20.55
2019-05-18T18:36:54.224Z,20.40
2019-05-18T18:39:22.941Z,20.36
2019-05-18T18:41:51.707Z,20.28
2019-05-18T18:44:20.426Z,20.15
2019-05-18T18:46:49.019Z,20.15
2019-05-18T18:49:17.737Z,20.16
2019-05-18T18:51:46.475Z,20.13
2019-05-18T18:54:15.173Z,20.00
2019-05-18T18:56:43.941Z,19.95
2019-05-18T18:59:12.590Z,19.95
2019-05-18T19:01:41.240Z,19.85
2019-05-18T19:04:09.999Z,19.76
2019-05-18T19:06:38.745Z,19.84
2019-05-18T19:09:07.560Z,19.74
2019-05-18T19:11:36.269Z,19.73
2019-05-18T19:14:05.639Z,19.60
2019-05-18T19:16:34.385Z,19.53
2019-05-18T19:19:03.172Z,19.45
2019-05-18T19:21:31.842Z,19.38
2019-05-18T19:24:00.541Z,19.30
2019-05-18T19:26:29.402Z,19.28
2019-05-18T19:28:58.151Z,19.27
2019-05-18T19:31:26.798Z,19.13
2019-05-18T19:33:55.476Z,19.34
2019-05-18T19:36:24.288Z,19.09
2019-05-18T19:38:53.019Z,19.14
2019-05-18T19:41:22.035Z,19.18
2019-05-18T19:43:50.660Z,19.11
2019-05-18T19:46:19.390Z,19.00
2019-05-18T19:48:48.258Z,18.51
2019-05-18T19:51:16.923Z,18.63
2019-05-18T19:53:45.544Z,18.61
2019-05-18T19:56:14.303Z,18.74
2019-05-18T19:58:42.979Z,18.72
2019-05-18T20:01:11.649Z,18.70
2019-05-18T20:03:40.268Z,18.53
2019-05-18T20:06:08.998Z,18.39
2019-05-18T20:08:37.747Z,18.51
2019-05-18T20:11:06.382Z,18.26
2019-05-18T20:13:35.094Z,18.24
2019-05-18T20:16:03.759Z,18.15
2019-05-18T20:18:32.466Z,18.15
2019-05-18T20:21:01.212Z,17.93
2019-05-18T20:23:30.024Z,17.78
2019-05-18T20:25:58.630Z,17.74
2019-05-18T20:28:27.371Z,17.56
2019-05-18T20:30:56.021Z,17.56
2019-05-18T20:33:24.808Z,17.65
2019-05-18T20:35:53.453Z,17.64
2019-05-18T20:38:22.094Z,17.52
2019-05-18T20:40:50.853Z,17.50
2019-05-18T20:43:19.600Z,17.65
2019-05-18T20:45:48.264Z,17.75
2019-05-18T20:48:17.180Z,17.80
2019-05-18T20:50:45.941Z,17.71
2019-05-18T20:53:14.671Z,17.71
2019-05-18T20:55:43.524Z,17.68
2019-05-18T20:58:12.188Z,17.35
2019-05-18T21:00:40.862Z,17.35
2019-05-18T21:03:09.568Z,17.65
2019-05-18T21:05:38.285Z,17.68
2019-05-18T21:08:07.014Z,17.53
2019-05-18T21:10:35.673Z,17.62
2019-05-18T21:13:04.334Z,17.64
2019-05-18T21:15:33.112Z,17.79
2019-05-18T21:18:01.857Z,17.51
2019-05-18T21:20:30.500Z,17.61
2019-05-18T21:22:59.233Z,17.52
2019-05-18T21:25:27.985Z,17.52
2019-05-18T21:27:56.699Z,17.53
2019-05-18T21:30:25.404Z,17.67
2019-05-18T21:32:54.126Z,18.02
2019-05-18T21:35:22.811Z,17.89
2019-05-18T21:37:51.498Z,18.02
2019-05-18T21:40:20.314Z,17.78
2019-05-18T21:42:49.045Z,17.59
2019-05-18T21:45:17.811Z,17.38
2019-05-18T21:47:46.465Z,17.65
2019-05-18T21:50:15.203Z,17.43
2019-05-18T21:52:44.003Z,17.31
2019-05-18T21:55:12.706Z,17.13
2019-05-18T21:57:41.368Z,17.17
2019-05-18T22:00:10.899Z,17.32
2019-05-18T22:02:39.633Z,17.21
2019-05-18T22:05:08.526Z,17.21
2019-05-18T22:07:37.281Z,16.92
2019-05-18T22:10:07.712Z,17.12
2019-05-18T22:12:36.431Z,16.96
2019-05-18T22:15:06.945Z,16.84
2019-05-18T22:17:37.234Z,16.82
2019-05-18T22:20:09.131Z,16.75
2019-05-18T22:22:37.799Z,16.82
2019-05-18T22:25:06.453Z,17.17
2019-05-18T22:27:35.188Z,16.79
2019-05-18T22:30:03.906Z,17.07
2019-05-18T22:32:32.628Z,17.12
2019-05-18T22:35:01.354Z,16.81
2019-05-18T22:37:30.133Z,16.11
2019-05-18T22:39:58.787Z,16.11
2019-05-18T22:42:27.369Z,16.25
2019-05-18T22:44:56.110Z,16.53
2019-05-18T22:47:24.826Z,16.41
2019-05-18T22:49:53.609Z,16.58
2019-05-18T22:52:22.259Z,16.66
2019-05-18T22:54:50.942Z,16.72
2019-05-18T22:57:19.720Z,16.72
2019-05-18T22:59:48.437Z,16.47
2019-05-18T23:02:17.170Z,16.54
2019-05-18T23:04:46.019Z,16.36
2019-05-18T23:07:14.594Z,16.36
2019-05-18T23:09:43.329Z,16.23
2019-05-18T23:12:12.087Z,16.22
2019-05-18T23:14:40.764Z,16.07
2019-05-18T23:17:09.428Z,16.07
2019-05-18T23:19:38.206Z,16.33
2019-05-18T23:22:06.906Z,16.58
2019-05-18T23:24:35.588Z,16.54
2019-05-18T23:27:04.279Z,16.35
2019-05-18T23:29:32.990Z,16.33
2019-05-18T23:32:01.725Z,16.17
2019-05-18T23:34:30.518Z,16.09
2019-05-18T23:36:59.273Z,16.19
2019-05-18T23:39:27.976Z,16.09
2019-05-18T23:41:56.737Z,16.22
2019-05-18T23:44:25.472Z,16.14
2019-05-18T23:46:54.216Z,16.07
2019-05-18T23:49:22.920Z,16.13
2019-05-18T23:51:51.567Z,16.06
2019-05-18T23:54:20.294Z,16.04
2019-05-18T23:56:49.103Z,15.97
2019-05-18T23:59:17.773Z,16.13
